createdAt,value
2019-03-08T00:00:24.051Z,0.00
2019-03-08T00:01:59.917Z,0.60
2019-03-08T00:03:36.114Z,0.00
2019-03-08T00:05:14.457Z,0.20
2019-03-08T00:06:53.408Z,0.00
2019-03-08T00:08:32.871Z,0.00
2019-03-08T00:10:08.155Z,0.00
2019-03-08T00:11:46.139Z,0.60
2019-03-08T00:13:21.479Z,0.00
2019-03-08T00:14:56.751Z,0.00
2019-03-08T00:16:32.741Z,0.00
2019-03-08T00:18:10.208Z,0.60
2019-03-08T00:19:46.232Z,0.00
2019-03-08T00:21:22.899Z,1.00
2019-03-08T00:22:58.005Z,0.00
2019-03-08T00:24:34.071Z,0.80
2019-03-08T00:26:09.429Z,0.80
2019-03-08T00:27:45.397Z,0.40
2019-03-08T00:29:21.148Z,0.00
2019-03-08T00:30:56.700Z,0.40
2019-03-08T00:32:36.585Z,0.00
2019-03-08T00:34:11.974Z,1.00
2019-03-08T00:35:50.276Z,0.00
2019-03-08T00:37:26.678Z,0.80
2019-03-08T00:39:01.801Z,1.00
2019-03-08T00:40:37.482Z,1.00
2019-03-08T00:42:13.588Z,0.00
2019-03-08T00:43:50.798Z,0.00
2019-03-08T00:45:27.194Z,0.00
2019-03-08T00:47:07.162Z,1.00
2019-03-08T00:48:43.177Z,0.60
2019-03-08T00:50:25.242Z,0.60
2019-03-08T00:52:08.872Z,1.00
2019-03-08T00:53:48.758Z,0.00
2019-03-08T00:55:27.286Z,1.00
2019-03-08T00:57:02.897Z,0.00
2019-03-08T00:58:38.797Z,0.20
2019-03-08T01:00:17.982Z,0.00
2019-03-08T01:01:53.114Z,0.00
2019-03-08T01:03:28.162Z,1.80
2019-03-08T01:05:04.866Z,0.00
2019-03-08T01:06:40.367Z,0.00
2019-03-08T01:08:15.725Z,1.00
2019-03-08T01:09:53.495Z,1.00
2019-03-08T01:11:30.202Z,1.00
2019-03-08T01:13:05.253Z,0.00
2019-03-08T01:14:40.692Z,0.80
2019-03-08T01:16:15.697Z,3.00
2019-03-08T01:17:55.885Z,1.00
2019-03-08T01:19:30.992Z,1.00
2019-03-08T01:21:06.165Z,0.00
2019-03-08T01:22:42.713Z,1.80
2019-03-08T01:24:18.384Z,1.00
2019-03-08T01:25:53.371Z,1.00
2019-03-08T01:27:28.454Z,0.80
2019-03-08T01:29:03.733Z,1.00
2019-03-08T01:30:46.024Z,0.60
2019-03-08T01:32:23.480Z,0.20
2019-03-08T01:33:58.754Z,0.20
2019-03-08T01:35:34.422Z,0.60
2019-03-08T01:37:10.113Z,1.00
2019-03-08T01:38:46.837Z,0.60
2019-03-08T01:40:22.644Z,1.00
2019-03-08T01:41:58.204Z,1.00
2019-03-08T01:43:33.184Z,1.00
2019-03-08T01:45:08.445Z,1.00
2019-03-08T01:46:43.436Z,1.00
2019-03-08T01:48:19.290Z,1.00
2019-03-08T01:49:55.230Z,0.80
2019-03-08T01:51:31.256Z,0.20
2019-03-08T01:53:06.598Z,3.00
2019-03-08T01:54:41.608Z,1.00
2019-03-08T01:56:16.951Z,1.00
2019-03-08T01:57:53.413Z,3.00
2019-03-08T01:59:28.497Z,0.00
2019-03-08T02:01:06.181Z,3.00
2019-03-08T02:02:41.969Z,0.00
2019-03-08T02:04:17.075Z,0.40
2019-03-08T02:05:52.603Z,1.40
2019-03-08T02:07:27.789Z,0.00
2019-03-08T02:09:03.506Z,1.00
2019-03-08T02:10:38.564Z,1.00
2019-03-08T02:12:13.647Z,1.00
2019-03-08T02:13:48.706Z,1.00
2019-03-08T02:15:24.108Z,1.40
2019-03-08T02:16:59.547Z,0.80
2019-03-08T02:18:34.632Z,0.80
2019-03-08T02:20:16.059Z,3.00
2019-03-08T02:21:50.885Z,1.00
2019-03-08T02:23:26.249Z,2.20
2019-03-08T02:25:01.290Z,1.00
2019-03-08T02:26:36.271Z,1.00
2019-03-08T02:28:11.360Z,1.00
2019-03-08T02:29:46.682Z,1.00
2019-03-08T02:31:22.376Z,1.00
2019-03-08T02:32:57.682Z,1.00
2019-03-08T02:34:32.981Z,1.80
2019-03-08T02:36:08.035Z,1.00
2019-03-08T02:37:43.301Z,1.00
2019-03-08T02:39:21.980Z,0.00
2019-03-08T02:40:57.783Z,1.80
2019-03-08T02:42:33.743Z,2.60
2019-03-08T02:44:09.056Z,1.00
2019-03-08T02:45:44.577Z,0.40
2019-03-08T02:47:19.808Z,3.00
2019-03-08T02:48:55.232Z,1.00
2019-03-08T02:50:30.463Z,3.20
2019-03-08T02:52:08.117Z,1.80
2019-03-08T02:53:43.762Z,1.80
2019-03-08T02:55:20.452Z,3.00
2019-03-08T02:56:58.813Z,3.80
2019-03-08T02:58:34.465Z,3.20
2019-03-08T03:00:10.215Z,3.00
2019-03-08T03:01:45.695Z,0.20
2019-03-08T03:03:21.447Z,6.20
2019-03-08T03:04:56.765Z,4.40
2019-03-08T03:06:31.918Z,3.00
2019-03-08T03:08:07.092Z,0.00
2019-03-08T03:09:42.379Z,0.40
2019-03-08T03:11:17.483Z,4.80
2019-03-08T03:12:52.844Z,1.00
2019-03-08T03:14:28.246Z,3.20
2019-03-08T03:16:03.363Z,3.20
2019-03-08T03:17:38.540Z,3.80
2019-03-08T03:19:13.641Z,3.00
2019-03-08T03:20:49.124Z,3.00
2019-03-08T03:22:24.299Z,2.20
2019-03-08T03:23:59.725Z,3.00
2019-03-08T03:25:35.060Z,3.00
2019-03-08T03:27:10.416Z,5.20
2019-03-08T03:28:45.596Z,3.20
2019-03-08T03:30:20.646Z,4.40
2019-03-08T03:31:55.703Z,0.80
2019-03-08T03:33:35.400Z,5.60
2019-03-08T03:35:10.372Z,6.00
2019-03-08T03:36:45.486Z,3.00
2019-03-08T03:38:20.573Z,5.60
2019-03-08T03:39:55.680Z,4.80
2019-03-08T03:41:31.172Z,6.20
2019-03-08T03:43:06.600Z,7.00
2019-03-08T03:44:42.040Z,8.20
2019-03-08T03:46:17.538Z,4.00
2019-03-08T03:47:52.670Z,7.00
2019-03-08T03:49:28.419Z,5.20
2019-03-08T03:51:04.193Z,4.00
2019-03-08T03:52:42.446Z,6.40
2019-03-08T03:54:17.586Z,4.80
2019-03-08T03:55:53.666Z,4.40
2019-03-08T03:57:28.871Z,5.60
2019-03-08T03:59:04.345Z,4.00
2019-03-08T04:00:43.794Z,5.60
2019-03-08T04:02:22.298Z,7.00
2019-03-08T04:03:57.589Z,4.80
2019-03-08T04:05:32.651Z,7.80
2019-03-08T04:07:08.901Z,6.00
2019-03-08T04:08:43.927Z,3.00
2019-03-08T04:10:25.057Z,6.00
2019-03-08T04:12:05.571Z,6.00
2019-03-08T04:13:45.071Z,6.80
2019-03-08T04:15:20.896Z,6.00
2019-03-08T04:16:56.190Z,8.20
2019-03-08T04:18:31.736Z,4.00
2019-03-08T04:20:06.901Z,9.80
2019-03-08T04:21:41.993Z,6.00
2019-03-08T04:23:17.001Z,4.00
2019-03-08T04:24:52.687Z,9.20
2019-03-08T04:26:28.810Z,17.60
2019-03-08T04:28:15.984Z,12.80
2019-03-08T04:30:03.233Z,17.60
2019-03-08T04:31:39.421Z,3.00
2019-03-08T04:33:18.228Z,4.80
2019-03-08T04:34:54.747Z,0.40
2019-03-08T04:36:30.402Z,0.00
2019-03-08T04:38:09.012Z,3.00
2019-03-08T04:39:44.293Z,3.00
2019-03-08T04:41:19.995Z,1.00
2019-03-08T04:42:58.216Z,3.00
2019-03-08T04:44:34.001Z,0.80
2019-03-08T04:46:11.146Z,6.20
2019-03-08T04:47:49.045Z,2.20
2019-03-08T04:49:26.166Z,3.60
2019-03-08T04:51:02.682Z,3.00
2019-03-08T04:52:39.147Z,1.00
2019-03-08T04:54:17.568Z,3.00
2019-03-08T04:56:01.950Z,1.00
2019-03-08T04:57:39.206Z,3.00
2019-03-08T04:59:14.870Z,2.20
2019-03-08T05:00:50.422Z,3.00
2019-03-08T05:02:25.516Z,3.00
2019-03-08T05:04:01.840Z,3.00
2019-03-08T05:05:36.807Z,3.00
2019-03-08T05:07:12.238Z,3.00
2019-03-08T05:08:47.489Z,2.60
2019-03-08T05:10:24.327Z,3.20
2019-03-08T05:11:59.859Z,1.00
2019-03-08T05:13:34.923Z,2.20
2019-03-08T05:15:10.594Z,2.20
2019-03-08T05:16:46.324Z,1.00
2019-03-08T05:18:23.662Z,0.80
2019-03-08T05:19:59.655Z,2.20
2019-03-08T05:21:34.684Z,1.00
2019-03-08T05:23:10.077Z,3.00
2019-03-08T05:24:45.151Z,0.20
2019-03-08T05:26:20.157Z,1.00
2019-03-08T05:27:55.246Z,1.00
2019-03-08T05:29:30.237Z,1.00
2019-03-08T05:31:05.909Z,0.80
2019-03-08T05:32:42.089Z,1.40
2019-03-08T05:34:17.116Z,1.00
2019-03-08T05:35:52.182Z,3.00
2019-03-08T05:37:27.198Z,1.40
2019-03-08T05:39:02.544Z,3.60
2019-03-08T05:40:37.626Z,3.00
2019-03-08T05:42:12.614Z,2.20
2019-03-08T05:43:47.905Z,1.40
2019-03-08T05:45:23.001Z,2.40
2019-03-08T05:46:58.413Z,9.20
2019-03-08T05:48:40.581Z,2.20
2019-03-08T05:50:16.727Z,3.80
2019-03-08T05:51:54.844Z,4.60
2019-03-08T05:53:30.413Z,9.00
2019-03-08T05:55:06.145Z,13.80
2019-03-08T05:56:41.151Z,6.20
2019-03-08T05:58:16.543Z,12.20
2019-03-08T05:59:51.885Z,14.20
2019-03-08T06:01:27.505Z,10.00
2019-03-08T06:03:02.564Z,10.80
2019-03-08T06:04:41.005Z,9.00
2019-03-08T06:06:15.845Z,10.00
2019-03-08T06:07:54.596Z,3.00
2019-03-08T06:09:31.994Z,9.40
2019-03-08T06:11:17.921Z,13.00
2019-03-08T06:12:53.098Z,5.20
2019-03-08T06:14:28.174Z,9.60
2019-03-08T06:16:03.815Z,4.80
2019-03-08T06:17:41.289Z,7.00
2019-03-08T06:19:16.492Z,4.60
2019-03-08T06:20:51.648Z,6.00
2019-03-08T06:22:32.835Z,8.60
2019-03-08T06:24:08.142Z,9.00
2019-03-08T06:25:44.420Z,11.20
2019-03-08T06:27:21.011Z,12.60
2019-03-08T06:28:57.148Z,5.20
2019-03-08T06:30:33.731Z,3.00
2019-03-08T06:32:12.468Z,8.20
2019-03-08T06:33:55.317Z,7.60
2019-03-08T06:35:31.150Z,7.00
2019-03-08T06:37:06.231Z,8.40
2019-03-08T06:38:41.577Z,3.00
2019-03-08T06:40:16.722Z,9.20
2019-03-08T06:41:51.936Z,7.00
2019-03-08T06:43:36.180Z,3.00
2019-03-08T06:45:14.202Z,2.60
2019-03-08T06:46:49.748Z,6.60
2019-03-08T06:48:27.723Z,0.60
2019-03-08T06:50:05.756Z,9.40
2019-03-08T06:51:44.399Z,6.00
2019-03-08T06:53:22.788Z,6.40
2019-03-08T06:54:58.857Z,9.40
2019-03-08T06:56:37.033Z,7.60
2019-03-08T06:58:15.186Z,3.60
2019-03-08T06:59:57.368Z,4.80
2019-03-08T07:01:42.429Z,10.60
2019-03-08T07:03:20.282Z,3.00
2019-03-08T07:04:56.096Z,11.40
2019-03-08T07:06:31.419Z,10.80
2019-03-08T07:08:08.482Z,6.20
2019-03-08T07:09:43.539Z,6.00
2019-03-08T07:11:18.562Z,19.80
2019-03-08T07:13:02.531Z,10.20
2019-03-08T07:14:35.984Z,10.00
2019-03-08T07:16:14.124Z,9.60
2019-03-08T07:17:50.246Z,11.00
2019-03-08T07:19:25.313Z,10.40
2019-03-08T07:21:29.669Z,12.60
2019-03-08T07:23:12.680Z,9.40
2019-03-08T07:25:11.870Z,15.60
2019-03-08T07:27:12.549Z,5.80
2019-03-08T07:29:05.607Z,8.60
2019-03-08T07:30:58.184Z,8.20
2019-03-08T07:32:45.361Z,9.20
2019-03-08T07:34:39.819Z,5.60
2019-03-08T07:36:39.761Z,7.80
2019-03-08T07:38:33.522Z,11.20
2019-03-08T07:40:29.505Z,9.60
2019-03-08T07:42:35.182Z,10.00
2019-03-08T07:44:40.834Z,10.20
2019-03-08T07:46:57.466Z,10.00
2019-03-08T07:48:57.227Z,12.40
2019-03-08T07:50:51.989Z,9.40
2019-03-08T07:53:01.521Z,11.60
2019-03-08T07:54:57.749Z,7.60
2019-03-08T07:56:50.799Z,4.00
2019-03-08T07:58:52.862Z,4.80
2019-03-08T08:00:50.815Z,10.80
2019-03-08T08:02:49.717Z,12.60
2019-03-08T08:04:49.306Z,17.20
2019-03-08T08:06:32.436Z,12.20
2019-03-08T08:08:27.103Z,12.80
2019-03-08T08:10:09.556Z,9.00
2019-03-08T08:12:03.454Z,8.60
2019-03-08T08:13:51.490Z,10.80
2019-03-08T08:15:46.168Z,8.20
2019-03-08T08:17:43.016Z,9.60
2019-03-08T08:19:44.544Z,11.40
2019-03-08T08:21:47.628Z,18.80
2019-03-08T08:23:45.017Z,9.20
2019-03-08T08:25:41.657Z,15.40
2019-03-08T08:27:54.817Z,9.20
2019-03-08T08:29:52.049Z,12.00
2019-03-08T08:31:58.717Z,9.80
2019-03-08T08:34:00.807Z,12.80
2019-03-08T08:35:45.396Z,16.60
2019-03-08T08:37:55.366Z,9.60
2019-03-08T08:40:02.028Z,10.80
2019-03-08T08:41:46.309Z,11.60
2019-03-08T08:43:40.183Z,13.60
2019-03-08T08:45:31.231Z,6.00
2019-03-08T08:47:26.036Z,7.80
2019-03-08T08:49:17.529Z,4.00
2019-03-08T08:51:24.129Z,12.40
2019-03-08T08:53:19.277Z,13.00
2019-03-08T08:55:32.201Z,10.00
2019-03-08T08:57:30.708Z,5.20
2019-03-08T08:59:42.128Z,5.80
2019-03-08T09:01:40.674Z,10.00
2019-03-08T09:03:36.442Z,9.40
2019-03-08T09:05:24.232Z,13.20
2019-03-08T09:07:14.571Z,1.00
2019-03-08T09:09:07.273Z,12.80
2019-03-08T09:11:00.385Z,11.60
2019-03-08T09:13:12.939Z,10.40
2019-03-08T09:15:13.734Z,18.00
2019-03-08T09:17:15.313Z,13.00
2019-03-08T09:19:11.915Z,13.20
2019-03-08T09:21:17.124Z,6.40
2019-03-08T09:23:10.392Z,13.40
2019-03-08T09:25:06.589Z,8.60
2019-03-08T09:26:55.099Z,6.00
2019-03-08T09:29:08.386Z,15.80
2019-03-08T09:31:09.182Z,13.80
2019-03-08T09:32:59.857Z,14.60
2019-03-08T09:34:54.577Z,10.00
2019-03-08T09:37:00.235Z,15.00
2019-03-08T09:39:08.895Z,10.20
2019-03-08T09:41:11.464Z,3.20
2019-03-08T09:43:31.904Z,12.40
2019-03-08T09:45:29.585Z,13.40
2019-03-08T09:47:16.586Z,9.60
2019-03-08T09:49:19.215Z,21.00
2019-03-08T09:51:23.594Z,8.60
2019-03-08T09:53:13.072Z,12.40
2019-03-08T09:55:16.619Z,9.60
2019-03-08T09:57:21.397Z,9.00
2019-03-08T09:59:25.021Z,9.40
2019-03-08T10:01:41.838Z,8.20
2019-03-08T10:03:34.757Z,10.00
2019-03-08T10:05:33.497Z,10.40
2019-03-08T10:07:34.196Z,2.80
2019-03-08T10:09:50.657Z,6.60
2019-03-08T10:11:40.802Z,5.80
2019-03-08T10:13:43.507Z,8.00
2019-03-08T10:15:37.381Z,9.40
2019-03-08T10:17:29.009Z,6.60
2019-03-08T10:19:48.185Z,0.00
2019-03-08T10:21:41.510Z,3.00
2019-03-08T10:23:37.476Z,6.60
2019-03-08T10:25:42.337Z,6.00
2019-03-08T10:27:37.758Z,6.60
2019-03-08T10:29:32.242Z,5.20
2019-03-08T10:31:28.290Z,3.60
2019-03-08T10:33:46.566Z,7.60
2019-03-08T10:35:43.004Z,3.80
2019-03-08T10:37:42.154Z,3.80
2019-03-08T10:39:56.811Z,5.20
2019-03-08T10:42:09.255Z,4.80
2019-03-08T10:44:11.168Z,3.00
2019-03-08T10:46:00.351Z,15.40
2019-03-08T10:48:01.509Z,6.60
2019-03-08T10:49:56.548Z,21.60
2019-03-08T10:52:17.328Z,5.60
2019-03-08T10:54:00.410Z,6.00
2019-03-08T10:55:53.891Z,6.00
2019-03-08T10:57:49.049Z,3.20
2019-03-08T10:59:46.124Z,3.00
2019-03-08T11:01:54.894Z,6.00
2019-03-08T11:03:52.526Z,7.00
2019-03-08T11:05:50.108Z,2.60
2019-03-08T11:07:53.983Z,4.00
2019-03-08T11:09:56.579Z,6.00
2019-03-08T11:11:43.835Z,6.00
2019-03-08T11:13:58.643Z,4.00
2019-03-08T11:15:52.212Z,6.00
2019-03-08T11:17:51.020Z,3.80
2019-03-08T11:19:47.955Z,6.40
2019-03-08T11:21:50.387Z,4.80
2019-03-08T11:23:52.919Z,6.80
2019-03-08T11:26:01.045Z,6.00
2019-03-08T11:28:04.147Z,7.00
2019-03-08T11:29:56.613Z,3.00
2019-03-08T11:32:01.349Z,5.20
2019-03-08T11:33:48.867Z,4.00
2019-03-08T11:35:39.203Z,6.60
2019-03-08T11:37:36.419Z,7.00
2019-03-08T11:39:40.446Z,7.00
2019-03-08T11:41:26.734Z,4.40
2019-03-08T11:43:36.075Z,6.60
2019-03-08T11:45:49.114Z,11.40
2019-03-08T11:47:37.415Z,7.00
2019-03-08T11:49:36.593Z,10.80
2019-03-08T11:51:34.227Z,12.00
2019-03-08T11:53:27.690Z,7.80
2019-03-08T11:55:22.721Z,6.80
2019-03-08T11:57:45.300Z,6.40
2019-03-08T11:59:30.081Z,6.40
2019-03-08T12:01:40.183Z,6.60
2019-03-08T12:03:34.035Z,7.40
2019-03-08T12:05:53.676Z,12.00
2019-03-08T12:08:09.103Z,9.00
2019-03-08T12:10:16.516Z,9.40
2019-03-08T12:12:24.891Z,6.40
2019-03-08T12:14:24.674Z,6.20
2019-03-08T12:16:14.226Z,6.40
2019-03-08T12:18:16.453Z,8.20
2019-03-08T12:20:12.303Z,7.80
2019-03-08T12:22:02.505Z,9.00
2019-03-08T12:24:00.786Z,6.40
2019-03-08T12:25:58.497Z,7.00
2019-03-08T12:28:03.588Z,6.80
2019-03-08T12:30:14.549Z,9.80
2019-03-08T12:32:18.879Z,7.40
2019-03-08T12:34:13.181Z,4.40
2019-03-08T12:36:10.801Z,6.80
2019-03-08T12:38:07.666Z,7.40
2019-03-08T12:39:57.788Z,3.00
2019-03-08T12:41:49.016Z,7.00
2019-03-08T12:43:42.251Z,7.80
2019-03-08T12:45:35.994Z,6.40
2019-03-08T12:47:39.157Z,3.00
2019-03-08T12:49:35.818Z,4.00
2019-03-08T12:51:24.659Z,6.00
2019-03-08T12:53:24.397Z,3.80
2019-03-08T12:55:35.214Z,2.60
2019-03-08T12:57:44.445Z,6.00
2019-03-08T12:59:41.820Z,5.40
2019-03-08T13:01:46.202Z,2.20
2019-03-08T13:03:33.671Z,2.20
2019-03-08T13:05:24.956Z,4.00
2019-03-08T13:07:35.650Z,3.80
2019-03-08T13:09:56.950Z,3.00
2019-03-08T13:11:36.272Z,10.00
2019-03-08T13:13:19.107Z,1.00
2019-03-08T13:15:08.386Z,3.00
2019-03-08T13:16:54.361Z,5.20
2019-03-08T13:18:34.761Z,3.80
2019-03-08T13:20:14.189Z,3.60
2019-03-08T13:21:50.928Z,3.00
2019-03-08T13:23:28.742Z,3.60
2019-03-08T13:25:11.198Z,9.20
2019-03-08T13:26:49.057Z,4.40
2019-03-08T13:28:32.687Z,4.00
2019-03-08T13:30:23.350Z,5.60
2019-03-08T13:32:05.564Z,3.40
2019-03-08T13:33:47.125Z,6.00
2019-03-08T13:35:25.569Z,6.20
2019-03-08T13:37:03.676Z,5.60
2019-03-08T13:38:43.303Z,6.80
2019-03-08T13:40:22.887Z,7.00
2019-03-08T13:41:59.291Z,4.80
2019-03-08T13:43:43.930Z,6.00
2019-03-08T13:45:21.966Z,7.00
2019-03-08T13:47:03.349Z,3.40
2019-03-08T13:48:40.329Z,7.80
2019-03-08T13:50:18.187Z,4.80
2019-03-08T13:51:54.828Z,9.00
2019-03-08T13:53:30.387Z,9.60
2019-03-08T13:55:12.280Z,10.80
2019-03-08T13:56:47.714Z,9.40
2019-03-08T13:58:29.891Z,9.00
2019-03-08T14:00:37.727Z,9.80
2019-03-08T14:02:17.221Z,11.20
2019-03-08T14:04:01.690Z,9.80
2019-03-08T14:05:39.339Z,9.80
2019-03-08T14:07:18.881Z,6.80
2019-03-08T14:08:55.726Z,12.00
2019-03-08T14:10:38.385Z,12.00
2019-03-08T14:12:15.992Z,14.40
2019-03-08T14:13:56.566Z,6.20
2019-03-08T14:15:35.657Z,12.00
2019-03-08T14:17:15.951Z,10.00
2019-03-08T14:18:59.378Z,8.20
2019-03-08T14:20:47.701Z,12.00
2019-03-08T14:22:57.401Z,7.80
2019-03-08T14:24:41.377Z,9.00
2019-03-08T14:26:21.097Z,6.00
2019-03-08T14:27:58.914Z,9.40
2019-03-08T14:29:44.620Z,4.00
2019-03-08T14:31:27.982Z,10.80
2019-03-08T14:33:08.265Z,12.00
2019-03-08T14:34:49.590Z,8.20
2019-03-08T14:36:32.547Z,6.60
2019-03-08T14:38:12.568Z,10.00
2019-03-08T14:39:51.522Z,8.60
2019-03-08T14:41:53.105Z,3.80
2019-03-08T14:43:37.310Z,6.00
2019-03-08T14:45:40.582Z,9.00
2019-03-08T14:47:21.320Z,9.00
2019-03-08T14:48:57.130Z,6.20
2019-03-08T14:50:36.975Z,13.00
2019-03-08T14:52:15.727Z,8.60
2019-03-08T14:54:09.864Z,10.00
2019-03-08T14:55:47.154Z,11.60
2019-03-08T14:57:30.094Z,8.40
2019-03-08T14:59:11.234Z,6.60
2019-03-08T15:00:54.480Z,11.20
2019-03-08T15:02:30.115Z,9.00
2019-03-08T15:04:16.372Z,7.00
2019-03-08T15:05:55.932Z,12.00
2019-03-08T15:07:37.320Z,6.00
2019-03-08T15:09:18.137Z,8.60
2019-03-08T15:10:53.846Z,3.80
2019-03-08T15:12:36.468Z,5.20
2019-03-08T15:14:19.307Z,7.00
2019-03-08T15:15:57.960Z,6.60
2019-03-08T15:17:37.126Z,6.20
2019-03-08T15:19:18.682Z,1.00
2019-03-08T15:20:54.902Z,7.80
2019-03-08T15:22:46.215Z,4.80
2019-03-08T15:24:24.333Z,9.00
2019-03-08T15:26:20.386Z,9.00
2019-03-08T15:28:03.456Z,7.80
2019-03-08T15:29:41.343Z,7.00
2019-03-08T15:31:19.327Z,9.00
2019-03-08T15:32:56.595Z,7.00
2019-03-08T15:34:37.508Z,6.40
2019-03-08T15:36:13.393Z,6.00
2019-03-08T15:38:13.383Z,7.00
2019-03-08T15:39:50.439Z,7.00
2019-03-08T15:41:31.707Z,8.60
2019-03-08T15:43:20.986Z,6.40
2019-03-08T15:44:56.587Z,7.40
2019-03-08T15:46:32.559Z,7.60
2019-03-08T15:48:10.995Z,6.00
2019-03-08T15:49:50.167Z,4.40
2019-03-08T15:51:25.676Z,6.20
2019-03-08T15:53:02.732Z,1.00
2019-03-08T15:54:46.885Z,4.40
2019-03-08T15:56:22.399Z,6.00
2019-03-08T15:57:59.633Z,6.80
2019-03-08T15:59:39.082Z,6.80
2019-03-08T16:01:24.230Z,5.20
2019-03-08T16:03:02.851Z,7.00
2019-03-08T16:04:41.819Z,6.20
2019-03-08T16:06:20.337Z,1.00
2019-03-08T16:07:57.666Z,3.00
2019-03-08T16:09:55.838Z,6.40
2019-03-08T16:11:33.360Z,4.80
2019-03-08T16:13:08.506Z,6.00
2019-03-08T16:14:44.927Z,4.00
2019-03-08T16:16:27.070Z,6.00
2019-03-08T16:18:25.345Z,6.00
2019-03-08T16:20:14.847Z,6.00
2019-03-08T16:21:51.963Z,6.00
2019-03-08T16:23:28.440Z,6.80
2019-03-08T16:25:11.022Z,4.80
2019-03-08T16:26:50.301Z,4.00
2019-03-08T16:28:27.292Z,3.60
2019-03-08T16:30:13.206Z,5.20
2019-03-08T16:32:27.205Z,5.00
2019-03-08T16:34:06.800Z,3.80
2019-03-08T16:36:04.577Z,3.40
2019-03-08T16:37:59.712Z,0.80
2019-03-08T16:39:53.322Z,2.20
2019-03-08T16:41:46.597Z,3.00
2019-03-08T16:43:48.868Z,1.00
2019-03-08T16:45:38.904Z,3.00
2019-03-08T16:47:54.310Z,4.00
2019-03-08T16:49:51.481Z,12.00
2019-03-08T16:52:01.742Z,9.60
2019-03-08T16:53:49.939Z,5.60
2019-03-08T16:55:42.132Z,7.80
2019-03-08T16:57:32.364Z,5.60
2019-03-08T16:59:41.537Z,1.00
2019-03-08T17:01:53.536Z,6.00
2019-03-08T17:03:50.307Z,4.00
2019-03-08T17:05:39.243Z,1.00
2019-03-08T17:07:35.738Z,0.80
2019-03-08T17:09:29.595Z,6.00
2019-03-08T17:11:24.691Z,3.80
2019-03-08T17:13:19.771Z,4.00
2019-03-08T17:15:17.061Z,5.20
2019-03-08T17:17:18.468Z,4.00
2019-03-08T17:19:01.469Z,4.00
2019-03-08T17:20:46.675Z,5.60
2019-03-08T17:22:53.441Z,10.40
2019-03-08T17:24:44.107Z,5.00
2019-03-08T17:26:41.501Z,5.80
2019-03-08T17:28:28.756Z,6.20
2019-03-08T17:30:30.699Z,9.00
2019-03-08T17:32:27.863Z,3.80
2019-03-08T17:34:18.439Z,10.80
2019-03-08T17:36:16.585Z,25.40
2019-03-08T17:38:11.242Z,12.80
2019-03-08T17:40:01.441Z,6.80
2019-03-08T17:41:55.892Z,6.00
2019-03-08T17:43:41.627Z,7.80
2019-03-08T17:45:50.609Z,14.60
2019-03-08T17:47:43.993Z,9.00
2019-03-08T17:49:46.153Z,12.20
2019-03-08T17:51:57.194Z,6.00
2019-03-08T17:53:43.090Z,6.00
2019-03-08T17:55:43.401Z,7.40
2019-03-08T17:57:50.341Z,6.00
2019-03-08T17:59:37.920Z,3.80
2019-03-08T18:01:39.286Z,6.00
2019-03-08T18:03:50.547Z,10.00
2019-03-08T18:05:45.453Z,5.60
2019-03-08T18:07:39.707Z,4.80
2019-03-08T18:09:33.886Z,7.00
2019-03-08T18:11:27.699Z,9.20
2019-03-08T18:13:30.314Z,9.40
2019-03-08T18:15:26.719Z,6.40
2019-03-08T18:17:28.720Z,6.00
2019-03-08T18:19:30.210Z,4.00
2019-03-08T18:21:35.402Z,7.80
2019-03-08T18:23:36.193Z,11.20
2019-03-08T18:25:26.327Z,7.00
2019-03-08T18:27:12.755Z,6.40
2019-03-08T18:29:06.427Z,7.00
2019-03-08T18:31:07.375Z,3.40
2019-03-08T18:32:57.312Z,7.00
2019-03-08T18:34:54.410Z,6.00
2019-03-08T18:37:01.679Z,8.20
2019-03-08T18:39:01.280Z,8.60
2019-03-08T18:40:58.310Z,1.00
2019-03-08T18:42:50.461Z,10.00
2019-03-08T18:44:47.713Z,6.60
2019-03-08T18:46:36.739Z,6.40
2019-03-08T18:48:42.788Z,6.60
2019-03-08T18:50:55.729Z,4.00
2019-03-08T18:53:01.063Z,4.40
2019-03-08T18:55:12.339Z,4.00
2019-03-08T18:57:13.686Z,5.20
2019-03-08T18:59:02.830Z,2.60
2019-03-08T19:01:03.220Z,3.60
2019-03-08T19:03:09.800Z,2.20
2019-03-08T19:05:04.183Z,4.00
2019-03-08T19:07:04.588Z,6.20
2019-03-08T19:09:07.320Z,4.00
2019-03-08T19:11:13.132Z,4.00
2019-03-08T19:13:10.409Z,5.60
2019-03-08T19:15:08.194Z,4.80
2019-03-08T19:16:58.321Z,3.20
2019-03-08T19:19:06.364Z,1.80
2019-03-08T19:20:55.606Z,1.00
2019-03-08T19:22:51.351Z,1.00
2019-03-08T19:24:59.217Z,4.00
2019-03-08T19:26:58.239Z,3.00
2019-03-08T19:29:16.000Z,3.00
2019-03-08T19:31:11.476Z,1.00
2019-03-08T19:33:14.734Z,3.20
2019-03-08T19:35:21.148Z,3.60
2019-03-08T19:37:11.268Z,3.40
2019-03-08T19:39:08.382Z,3.00
2019-03-08T19:41:03.555Z,1.00
2019-03-08T19:43:15.830Z,3.80
2019-03-08T19:45:15.273Z,1.00
2019-03-08T19:47:18.055Z,1.00
2019-03-08T19:49:30.374Z,3.00
2019-03-08T19:51:23.568Z,3.00
2019-03-08T19:53:09.807Z,0.60
2019-03-08T19:55:02.137Z,3.80
2019-03-08T19:57:04.581Z,3.20
2019-03-08T19:59:14.459Z,4.00
2019-03-08T20:01:33.678Z,4.00
2019-03-08T20:03:35.419Z,3.20
2019-03-08T20:05:36.032Z,3.40
2019-03-08T20:07:30.346Z,5.60
2019-03-08T20:09:27.477Z,1.00
2019-03-08T20:11:20.235Z,0.80
2019-03-08T20:13:16.460Z,3.00
2019-03-08T20:15:18.322Z,4.00
2019-03-08T20:17:09.058Z,3.80
2019-03-08T20:19:02.545Z,3.00
2019-03-08T20:20:55.209Z,3.40
2019-03-08T20:22:47.444Z,5.80
2019-03-08T20:24:43.694Z,5.60
2019-03-08T20:26:47.231Z,6.80
2019-03-08T20:28:38.202Z,9.00
2019-03-08T20:30:37.394Z,6.00
2019-03-08T20:32:49.498Z,4.00
2019-03-08T20:34:43.896Z,3.00
2019-03-08T20:36:48.775Z,4.00
2019-03-08T20:38:47.073Z,4.80
2019-03-08T20:40:46.459Z,4.00
2019-03-08T20:42:41.846Z,1.40
2019-03-08T20:44:28.373Z,4.40
2019-03-08T20:46:25.328Z,6.00
2019-03-08T20:47:59.432Z,4.80
2019-03-08T20:49:34.930Z,4.00
2019-03-08T20:51:16.283Z,6.00
2019-03-08T20:52:51.372Z,4.00
2019-03-08T20:54:35.135Z,4.00
2019-03-08T20:56:14.163Z,0.60
2019-03-08T20:57:52.054Z,3.00
2019-03-08T20:59:32.022Z,4.00
2019-03-08T21:01:14.180Z,0.40
2019-03-08T21:02:57.134Z,3.00
2019-03-08T21:04:51.014Z,4.00
2019-03-08T21:06:28.658Z,3.00
2019-03-08T21:08:09.391Z,3.00
2019-03-08T21:09:51.989Z,3.20
2019-03-08T21:11:29.598Z,3.20
2019-03-08T21:13:07.148Z,3.20
2019-03-08T21:14:45.465Z,4.00
2019-03-08T21:16:23.610Z,3.00
2019-03-08T21:18:11.546Z,3.00
2019-03-08T21:19:49.902Z,3.00
2019-03-08T21:21:31.325Z,1.00
2019-03-08T21:23:19.178Z,4.00
2019-03-08T21:24:57.199Z,4.00
2019-03-08T21:26:41.486Z,4.00
2019-03-08T21:28:16.768Z,1.00
2019-03-08T21:29:55.651Z,4.00
2019-03-08T21:31:36.561Z,3.00
2019-03-08T21:33:18.075Z,2.40
2019-03-08T21:34:57.526Z,3.40
2019-03-08T21:36:37.767Z,3.20
2019-03-08T21:38:19.290Z,3.40
2019-03-08T21:40:12.387Z,0.00
2019-03-08T21:42:07.312Z,4.00
2019-03-08T21:44:25.584Z,1.00
2019-03-08T21:46:06.044Z,3.80
2019-03-08T21:47:45.420Z,1.00
2019-03-08T21:49:26.483Z,1.00
2019-03-08T21:51:04.844Z,2.60
2019-03-08T21:52:43.243Z,3.00
2019-03-08T21:54:18.334Z,3.00
2019-03-08T21:55:59.093Z,4.00
2019-03-08T21:57:34.409Z,3.40
2019-03-08T21:59:09.975Z,4.00
2019-03-08T22:00:48.337Z,3.00
2019-03-08T22:02:26.530Z,1.40
2019-03-08T22:04:09.576Z,3.00
2019-03-08T22:05:46.527Z,3.00
2019-03-08T22:07:24.739Z,3.00
2019-03-08T22:09:17.021Z,4.00
2019-03-08T22:11:31.191Z,4.00
2019-03-08T22:13:13.192Z,3.00
2019-03-08T22:15:15.211Z,0.40
2019-03-08T22:16:59.698Z,4.00
2019-03-08T22:18:38.718Z,3.00
2019-03-08T22:20:25.296Z,3.80
2019-03-08T22:22:01.756Z,4.00
2019-03-08T22:23:41.697Z,3.00
2019-03-08T22:25:17.301Z,3.40
2019-03-08T22:26:59.249Z,3.60
2019-03-08T22:28:50.961Z,3.40
2019-03-08T22:30:29.224Z,2.60
2019-03-08T22:32:15.036Z,3.80
2019-03-08T22:33:53.517Z,3.80
2019-03-08T22:35:30.528Z,3.00
2019-03-08T22:37:12.478Z,3.60
2019-03-08T22:38:57.579Z,3.00
2019-03-08T22:40:34.731Z,3.00
2019-03-08T22:42:15.149Z,3.00
2019-03-08T22:43:53.354Z,3.40
2019-03-08T22:45:39.816Z,3.60
2019-03-08T22:47:20.034Z,3.40
2019-03-08T22:48:55.338Z,2.60
2019-03-08T22:50:33.987Z,5.60
2019-03-08T22:52:10.897Z,4.00
2019-03-08T22:53:47.224Z,1.00
2019-03-08T22:55:28.704Z,4.40
2019-03-08T22:57:11.196Z,3.00
2019-03-08T22:58:46.791Z,3.80
2019-03-08T23:00:37.315Z,3.00
2019-03-08T23:02:17.019Z,1.80
2019-03-08T23:04:01.141Z,3.40
2019-03-08T23:05:38.052Z,3.00
2019-03-08T23:07:13.199Z,1.80
2019-03-08T23:08:50.674Z,2.20
2019-03-08T23:10:27.749Z,3.40
2019-03-08T23:12:04.456Z,6.00
2019-03-08T23:13:49.314Z,4.00
2019-03-08T23:15:23.437Z,4.20
2019-03-08T23:17:01.735Z,3.60
2019-03-08T23:18:39.838Z,6.00
2019-03-08T23:20:21.621Z,4.00
2019-03-08T23:21:59.353Z,4.80
2019-03-08T23:23:35.945Z,3.80
2019-03-08T23:25:17.131Z,1.00
2019-03-08T23:27:19.160Z,4.00
2019-03-08T23:29:12.826Z,4.40
2019-03-08T23:30:49.945Z,3.40
2019-03-08T23:32:37.830Z,6.00